createdAt,value
2022-10-17T00:00:14.672Z,3.90
2022-10-17T00:01:16.413Z,4.07
2022-10-17T00:02:18.179Z,3.30
2022-10-17T00:03:19.941Z,4.00
2022-10-17T00:04:22.591Z,3.87
2022-10-17T00:05:25.147Z,4.33
2022-10-17T00:06:27.254Z,3.70
2022-10-17T00:07:30.905Z,3.13
2022-10-17T00:08:32.935Z,3.50
2022-10-17T00:09:34.645Z,4.00
2022-10-17T00:10:36.554Z,4.57
2022-10-17T00:11:38.554Z,3.90
2022-10-17T00:12:40.842Z,3.40
2022-10-17T00:13:43.189Z,4.30
2022-10-17T00:14:44.938Z,4.60
2022-10-17T00:15:46.621Z,4.20
2022-10-17T00:16:48.734Z,3.60
2022-10-17T00:17:50.530Z,3.97
2022-10-17T00:18:52.393Z,3.73
2022-10-17T00:19:54.218Z,4.03
2022-10-17T00:20:56.205Z,4.70
2022-10-17T00:21:58.357Z,5.00
2022-10-17T00:23:01.572Z,3.80
2022-10-17T00:24:03.852Z,3.63
2022-10-17T00:25:06.130Z,3.73
2022-10-17T00:26:07.825Z,4.70
2022-10-17T00:27:09.672Z,4.63
2022-10-17T00:28:15.671Z,3.97
2022-10-17T00:29:17.437Z,4.27
2022-10-17T00:30:19.361Z,4.00
2022-10-17T00:31:22.943Z,4.10
2022-10-17T00:32:24.468Z,4.07
2022-10-17T00:33:27.349Z,3.87
2022-10-17T00:34:31.166Z,4.67
2022-10-17T00:35:33.010Z,3.67
2022-10-17T00:36:34.998Z,4.33
2022-10-17T00:37:37.236Z,4.23
2022-10-17T00:38:40.645Z,4.30
2022-10-17T00:39:42.587Z,3.73
2022-10-17T00:40:44.905Z,4.10
2022-10-17T00:41:46.660Z,3.93
2022-10-17T00:42:48.416Z,3.93
2022-10-17T00:44:04.122Z,4.13
2022-10-17T00:45:28.206Z,3.90
2022-10-17T00:46:32.997Z,4.77
2022-10-17T00:47:36.646Z,4.37
2022-10-17T00:48:38.503Z,3.93
2022-10-17T00:49:40.907Z,4.50
2022-10-17T00:50:46.998Z,4.13
2022-10-17T00:51:54.239Z,3.93
2022-10-17T00:53:01.538Z,4.00
2022-10-17T00:54:05.922Z,4.00
2022-10-17T00:55:16.500Z,3.50
2022-10-17T00:56:21.192Z,4.10
2022-10-17T00:57:23.049Z,4.20
2022-10-17T00:58:24.798Z,3.93
2022-10-17T00:59:28.067Z,3.73
2022-10-17T01:00:30.604Z,3.90
2022-10-17T01:01:32.422Z,4.47
2022-10-17T01:02:34.218Z,4.87
2022-10-17T01:03:35.955Z,4.10
2022-10-17T01:04:40.677Z,4.73
2022-10-17T01:05:43.021Z,3.93
2022-10-17T01:06:44.896Z,4.90
2022-10-17T01:07:49.074Z,4.60
2022-10-17T01:08:50.796Z,4.43
2022-10-17T01:09:52.640Z,4.63
2022-10-17T01:10:59.070Z,4.23
2022-10-17T01:12:22.131Z,4.37
2022-10-17T01:13:36.066Z,4.27
2022-10-17T01:14:59.349Z,4.10
2022-10-17T01:16:11.553Z,4.30
2022-10-17T01:17:16.225Z,4.72
2022-10-17T01:18:21.156Z,4.40
2022-10-17T01:19:32.157Z,4.40
2022-10-17T01:20:52.381Z,4.90
2022-10-17T01:22:00.479Z,5.07
2022-10-17T01:23:20.441Z,4.73
2022-10-17T01:24:43.610Z,4.60
2022-10-17T01:26:13.171Z,5.37
2022-10-17T01:27:38.757Z,4.73
2022-10-17T01:28:52.685Z,4.83
2022-10-17T01:30:32.015Z,4.37
2022-10-17T01:31:55.776Z,4.20
2022-10-17T01:33:08.973Z,4.83
2022-10-17T01:34:22.261Z,4.60
2022-10-17T01:35:33.382Z,5.43
2022-10-17T01:36:40.871Z,5.27
2022-10-17T01:37:55.955Z,5.23
2022-10-17T01:39:05.160Z,4.90
2022-10-17T01:40:23.432Z,5.23
2022-10-17T01:41:35.129Z,3.93
2022-10-17T01:42:48.738Z,4.80
2022-10-17T01:43:56.052Z,5.47
2022-10-17T01:45:19.786Z,5.17
2022-10-17T01:46:37.268Z,5.87
2022-10-17T01:47:42.042Z,5.50
2022-10-17T01:48:46.286Z,5.73
2022-10-17T01:49:51.834Z,5.90
2022-10-17T01:51:36.518Z,5.30
2022-10-17T01:52:48.119Z,5.70
2022-10-17T01:53:55.039Z,4.67
2022-10-17T01:55:14.753Z,4.90
2022-10-17T01:56:18.435Z,6.63
2022-10-17T01:57:40.419Z,5.60
2022-10-17T01:58:51.935Z,5.10
2022-10-17T01:59:56.479Z,5.67
2022-10-17T02:01:02.327Z,5.47
2022-10-17T02:02:06.259Z,6.00
2022-10-17T02:03:12.298Z,5.97
2022-10-17T02:04:14.231Z,5.70
2022-10-17T02:05:19.159Z,4.83
2022-10-17T02:06:20.905Z,4.90
2022-10-17T02:07:23.137Z,4.70
2022-10-17T02:08:39.957Z,5.90
2022-10-17T02:09:41.768Z,5.30
2022-10-17T02:10:47.394Z,5.43
2022-10-17T02:12:21.499Z,5.10
2022-10-17T02:13:40.799Z,6.27
2022-10-17T02:15:08.514Z,4.00
2022-10-17T02:16:26.637Z,4.70
2022-10-17T02:17:56.447Z,5.10
2022-10-17T02:19:00.983Z,4.47
2022-10-17T02:20:02.667Z,4.27
2022-10-17T02:21:16.250Z,4.37
2022-10-17T02:22:37.883Z,4.33
2022-10-17T02:23:42.798Z,4.50
2022-10-17T02:24:53.469Z,4.37
2022-10-17T02:26:18.245Z,4.10
2022-10-17T02:27:52.290Z,3.73
2022-10-17T02:29:08.481Z,4.43
2022-10-17T02:30:20.146Z,4.20
2022-10-17T02:31:29.134Z,4.13
2022-10-17T02:33:03.547Z,4.10
2022-10-17T02:34:14.040Z,4.70
2022-10-17T02:35:18.711Z,4.20
2022-10-17T02:36:26.055Z,4.27
2022-10-17T02:37:30.592Z,4.20
2022-10-17T02:38:34.315Z,4.00
2022-10-17T02:39:40.339Z,4.23
2022-10-17T02:40:44.794Z,4.00
2022-10-17T02:41:48.153Z,4.43
2022-10-17T02:42:53.066Z,4.50
2022-10-17T02:43:57.677Z,4.40
2022-10-17T02:45:03.385Z,4.43
2022-10-17T02:46:07.188Z,3.67
2022-10-17T02:47:22.082Z,4.10
2022-10-17T02:48:30.884Z,3.90
2022-10-17T02:49:39.583Z,3.50
2022-10-17T02:51:02.573Z,4.30
2022-10-17T02:52:13.241Z,4.00
2022-10-17T02:53:25.424Z,4.47
2022-10-17T02:55:03.827Z,4.13
2022-10-17T02:56:14.284Z,3.93
2022-10-17T02:57:50.859Z,3.47
2022-10-17T02:58:58.584Z,4.97
2022-10-17T03:00:02.422Z,4.13
2022-10-17T03:01:04.919Z,5.30
2022-10-17T03:02:07.260Z,4.43
2022-10-17T03:03:20.661Z,4.70
2022-10-17T03:04:24.158Z,5.30
2022-10-17T03:05:28.860Z,3.70
2022-10-17T03:06:30.542Z,4.20
2022-10-17T03:07:33.907Z,4.90
2022-10-17T03:08:36.134Z,4.80
2022-10-17T03:09:38.069Z,4.20
2022-10-17T03:10:41.051Z,4.50
2022-10-17T03:11:43.356Z,4.60
2022-10-17T03:12:45.740Z,4.37
2022-10-17T03:13:47.716Z,4.00
2022-10-17T03:14:49.631Z,3.70
2022-10-17T03:15:51.354Z,4.20
2022-10-17T03:16:53.161Z,4.80
2022-10-17T03:17:55.551Z,5.03
2022-10-17T03:18:57.345Z,4.80
2022-10-17T03:19:59.376Z,4.20
2022-10-17T03:21:01.349Z,4.57
2022-10-17T03:22:03.095Z,4.03
2022-10-17T03:23:05.062Z,4.20
2022-10-17T03:24:07.308Z,5.07
2022-10-17T03:25:09.833Z,4.67
2022-10-17T03:26:11.809Z,3.80
2022-10-17T03:27:14.418Z,5.17
2022-10-17T03:28:16.333Z,4.90
2022-10-17T03:29:18.085Z,5.00
2022-10-17T03:30:20.344Z,4.43
2022-10-17T03:31:22.283Z,4.23
2022-10-17T03:32:24.167Z,5.30
2022-10-17T03:33:25.920Z,4.40
2022-10-17T03:34:27.765Z,4.30
2022-10-17T03:35:29.628Z,4.30
2022-10-17T03:36:31.597Z,4.20
2022-10-17T03:37:33.326Z,4.97
2022-10-17T03:38:36.020Z,4.07
2022-10-17T03:39:37.873Z,5.60
2022-10-17T03:40:39.619Z,4.27
2022-10-17T03:41:41.404Z,4.87
2022-10-17T03:42:43.415Z,4.83
2022-10-17T03:43:45.521Z,3.77
2022-10-17T03:44:47.308Z,4.33
2022-10-17T03:45:49.021Z,4.20
2022-10-17T03:46:51.120Z,4.70
2022-10-17T03:47:53.590Z,4.23
2022-10-17T03:48:55.353Z,4.47
2022-10-17T03:50:00.352Z,5.20
2022-10-17T03:51:07.975Z,4.13
2022-10-17T03:52:13.606Z,4.50
2022-10-17T03:53:15.539Z,4.43
2022-10-17T03:54:17.320Z,5.10
2022-10-17T03:55:19.062Z,4.13
2022-10-17T03:56:23.642Z,4.30
2022-10-17T03:57:25.450Z,4.57
2022-10-17T03:58:27.154Z,3.93
2022-10-17T03:59:28.868Z,5.27
2022-10-17T04:00:30.547Z,4.50
2022-10-17T04:01:32.548Z,4.53
2022-10-17T04:02:35.369Z,4.47
2022-10-17T04:03:37.311Z,5.00
2022-10-17T04:04:39.119Z,4.77
2022-10-17T04:05:41.116Z,5.57
2022-10-17T04:06:42.895Z,5.00
2022-10-17T04:07:44.722Z,3.80
2022-10-17T04:08:46.457Z,4.50
2022-10-17T04:09:48.613Z,4.50
2022-10-17T04:10:50.388Z,4.20
2022-10-17T04:11:52.259Z,4.10
2022-10-17T04:12:54.072Z,4.97
2022-10-17T04:13:57.664Z,3.70
2022-10-17T04:14:59.614Z,4.73
2022-10-17T04:16:06.758Z,4.53
2022-10-17T04:17:08.622Z,4.65
2022-10-17T04:18:10.518Z,4.80
2022-10-17T04:19:14.992Z,5.23
2022-10-17T04:20:16.845Z,4.37
2022-10-17T04:21:19.478Z,5.17
2022-10-17T04:22:21.419Z,4.63
2022-10-17T04:23:23.259Z,4.65
2022-10-17T04:24:25.841Z,4.57
2022-10-17T04:25:27.832Z,5.13
2022-10-17T04:26:29.905Z,4.50
2022-10-17T04:27:31.674Z,5.23
2022-10-17T04:28:33.950Z,5.37
2022-10-17T04:29:35.866Z,5.57
2022-10-17T04:30:41.124Z,5.40
2022-10-17T04:31:45.257Z,4.57
2022-10-17T04:32:47.129Z,4.70
2022-10-17T04:33:50.408Z,4.63
2022-10-17T04:34:52.338Z,4.20
2022-10-17T04:36:00.227Z,4.60
2022-10-17T04:37:02.758Z,4.70
2022-10-17T04:38:04.618Z,4.37
2022-10-17T04:39:06.506Z,5.23
2022-10-17T04:40:09.229Z,4.67
2022-10-17T04:41:14.250Z,4.40
2022-10-17T04:42:17.037Z,4.93
2022-10-17T04:43:18.862Z,5.17
2022-10-17T04:44:21.117Z,5.63
2022-10-17T04:45:22.782Z,4.97
2022-10-17T04:46:24.711Z,5.07
2022-10-17T04:47:26.411Z,5.77
2022-10-17T04:48:29.299Z,4.37
2022-10-17T04:49:31.592Z,5.97
2022-10-17T04:50:33.383Z,5.00
2022-10-17T04:51:35.240Z,4.70
2022-10-17T04:52:39.716Z,5.50
2022-10-17T04:53:42.877Z,4.67
2022-10-17T04:54:44.769Z,5.47
2022-10-17T04:55:46.794Z,5.30
2022-10-17T04:56:49.219Z,5.27
2022-10-17T04:57:50.854Z,4.70
2022-10-17T04:58:52.815Z,4.37
2022-10-17T04:59:54.578Z,4.33
2022-10-17T05:00:56.718Z,5.13
2022-10-17T05:01:58.957Z,4.57
2022-10-17T05:03:00.805Z,5.43
2022-10-17T05:04:03.014Z,5.00
2022-10-17T05:05:05.204Z,4.60
2022-10-17T05:06:09.745Z,4.63
2022-10-17T05:07:11.413Z,4.60
2022-10-17T05:08:13.291Z,5.18
2022-10-17T05:09:15.245Z,5.03
2022-10-17T05:10:17.486Z,5.18
2022-10-17T05:11:27.697Z,5.05
2022-10-17T05:12:29.643Z,6.30
2022-10-17T05:13:32.939Z,5.70
2022-10-17T05:14:34.718Z,7.35
2022-10-17T05:15:36.926Z,7.47
2022-10-17T05:16:38.710Z,7.10
2022-10-17T05:17:40.686Z,7.95
2022-10-17T05:18:42.587Z,7.63
2022-10-17T05:19:44.291Z,7.55
2022-10-17T05:20:45.888Z,6.90
2022-10-17T05:21:47.729Z,6.85
2022-10-17T05:22:49.688Z,7.25
2022-10-17T05:23:52.690Z,6.07
2022-10-17T05:24:54.573Z,6.50
2022-10-17T05:25:57.002Z,6.40
2022-10-17T05:26:58.828Z,5.50
2022-10-17T05:28:00.941Z,6.20
2022-10-17T05:29:03.914Z,7.18
2022-10-17T05:30:06.395Z,6.63
2022-10-17T05:31:09.834Z,7.00
2022-10-17T05:32:12.171Z,6.72
2022-10-17T05:33:13.973Z,6.60
2022-10-17T05:34:15.733Z,5.70
2022-10-17T05:35:18.404Z,7.20
2022-10-17T05:36:20.477Z,7.10
2022-10-17T05:37:23.002Z,7.00
2022-10-17T05:38:25.794Z,6.93
2022-10-17T05:39:28.273Z,6.78
2022-10-17T05:40:30.251Z,7.90
2022-10-17T05:41:32.220Z,7.75
2022-10-17T05:42:34.111Z,6.73
2022-10-17T05:43:36.293Z,7.25
2022-10-17T05:44:39.764Z,8.13
2022-10-17T05:45:41.637Z,6.20
2022-10-17T05:46:43.454Z,7.85
2022-10-17T05:47:45.451Z,7.40
2022-10-17T05:48:47.500Z,8.63
2022-10-17T05:49:52.300Z,10.50
2022-10-17T05:50:59.875Z,8.27
2022-10-17T05:52:02.166Z,8.45
2022-10-17T05:53:03.954Z,7.68
2022-10-17T05:54:06.846Z,8.45
2022-10-17T05:55:09.338Z,8.60
2022-10-17T05:56:13.327Z,11.23
2022-10-17T05:57:15.126Z,10.93
2022-10-17T05:58:22.203Z,10.27
2022-10-17T05:59:29.223Z,10.82
2022-10-17T06:00:31.023Z,9.25
2022-10-17T06:01:33.930Z,9.23
2022-10-17T06:02:35.731Z,9.20
2022-10-17T06:03:37.663Z,8.77
2022-10-17T06:04:45.620Z,8.18
2022-10-17T06:05:47.626Z,9.60
2022-10-17T06:06:49.674Z,9.10
2022-10-17T06:07:52.676Z,8.77
2022-10-17T06:08:55.381Z,8.97
2022-10-17T06:09:59.200Z,9.00
2022-10-17T06:11:03.860Z,8.05
2022-10-17T06:12:08.440Z,8.80
2022-10-17T06:13:10.972Z,8.20
2022-10-17T06:14:12.707Z,7.87
2022-10-17T06:15:14.600Z,8.00
2022-10-17T06:16:16.290Z,7.50
2022-10-17T06:17:17.951Z,7.60
2022-10-17T06:18:20.126Z,7.90
2022-10-17T06:19:22.405Z,9.80
2022-10-17T06:20:24.341Z,8.20
2022-10-17T06:21:27.510Z,7.40
2022-10-17T06:22:29.717Z,7.10
2022-10-17T06:23:32.397Z,6.03
2022-10-17T06:24:34.327Z,6.57
2022-10-17T06:25:36.172Z,7.90
2022-10-17T06:26:37.954Z,6.13
2022-10-17T06:27:40.698Z,6.80
2022-10-17T06:28:42.746Z,6.10
2022-10-17T06:29:44.830Z,6.33
2022-10-17T06:30:46.589Z,5.93
2022-10-17T06:31:48.463Z,5.90
2022-10-17T06:32:50.189Z,7.10
2022-10-17T06:33:52.222Z,6.17
2022-10-17T06:34:53.823Z,5.80
2022-10-17T06:35:56.368Z,5.53
2022-10-17T06:36:58.326Z,5.27
2022-10-17T06:38:00.076Z,5.50
2022-10-17T06:39:02.637Z,5.10
2022-10-17T06:40:05.408Z,5.47
2022-10-17T06:41:14.336Z,5.40
2022-10-17T06:42:16.077Z,5.40
2022-10-17T06:43:17.915Z,5.43
2022-10-17T06:44:19.779Z,4.57
2022-10-17T06:45:22.145Z,4.90
2022-10-17T06:46:27.062Z,4.30
2022-10-17T06:47:29.085Z,5.30
2022-10-17T06:48:31.183Z,4.73
2022-10-17T06:49:34.510Z,5.23
2022-10-17T06:50:36.695Z,3.20
2022-10-17T06:51:38.432Z,3.50
2022-10-17T06:52:40.196Z,3.60
2022-10-17T06:53:42.401Z,3.70
2022-10-17T06:54:45.072Z,3.57
2022-10-17T06:55:52.153Z,4.47
2022-10-17T06:56:53.877Z,3.30
2022-10-17T06:57:57.015Z,3.60
2022-10-17T06:58:58.883Z,2.93
2022-10-17T07:00:00.901Z,2.77
2022-10-17T07:01:06.715Z,2.47
2022-10-17T07:02:09.990Z,2.73
2022-10-17T07:03:11.964Z,2.77
2022-10-17T07:04:13.828Z,2.47
2022-10-17T07:05:16.173Z,3.27
2022-10-17T07:06:18.120Z,2.63
2022-10-17T07:07:20.072Z,2.50
2022-10-17T07:08:22.306Z,2.10
2022-10-17T07:09:24.634Z,2.80
2022-10-17T07:10:26.755Z,2.27
2022-10-17T07:11:28.564Z,3.13
2022-10-17T07:12:30.328Z,7.03
2022-10-17T07:13:36.759Z,4.83
2022-10-17T07:14:41.476Z,3.60
2022-10-17T07:15:43.846Z,5.50
2022-10-17T07:16:46.100Z,29.90
2022-10-17T07:17:51.221Z,15.57
2022-10-17T07:18:54.320Z,12.00
2022-10-17T07:19:56.289Z,16.10
2022-10-17T07:20:58.330Z,11.50
2022-10-17T07:22:00.168Z,12.57
2022-10-17T07:23:02.165Z,9.40
2022-10-17T07:24:04.560Z,6.37
2022-10-17T07:25:06.969Z,3.53
2022-10-17T07:26:12.061Z,2.63
2022-10-17T07:27:14.668Z,2.80
2022-10-17T07:28:16.670Z,3.60
2022-10-17T07:29:18.755Z,2.87
2022-10-17T07:30:21.723Z,3.10
2022-10-17T07:31:24.175Z,3.50
2022-10-17T07:32:26.941Z,2.77
2022-10-17T07:33:28.925Z,2.73
2022-10-17T07:34:31.697Z,2.40
2022-10-17T07:35:33.643Z,3.60
2022-10-17T07:36:35.344Z,2.50
2022-10-17T07:37:37.212Z,2.77
2022-10-17T07:38:39.303Z,2.73
2022-10-17T07:39:41.308Z,2.40
2022-10-17T07:40:43.210Z,2.70
2022-10-17T07:41:44.968Z,2.50
2022-10-17T07:42:47.512Z,3.03
2022-10-17T07:43:50.289Z,2.90
2022-10-17T07:44:52.322Z,2.70
2022-10-17T07:45:54.257Z,2.37
2022-10-17T07:46:56.112Z,2.77
2022-10-17T07:47:58.634Z,2.90
2022-10-17T07:49:00.427Z,2.10
2022-10-17T07:50:04.272Z,2.27
2022-10-17T07:51:07.994Z,2.20
2022-10-17T07:52:14.411Z,3.37
2022-10-17T07:53:16.300Z,2.53
2022-10-17T07:54:18.489Z,1.90
2022-10-17T07:55:20.309Z,2.30
2022-10-17T07:56:24.708Z,2.10
2022-10-17T07:57:26.427Z,2.50
2022-10-17T07:58:29.512Z,3.10
2022-10-17T07:59:33.028Z,2.30
2022-10-17T08:00:37.199Z,2.47
2022-10-17T08:01:39.123Z,2.43
2022-10-17T08:02:40.989Z,2.30
2022-10-17T08:03:45.130Z,2.40
2022-10-17T08:04:46.803Z,2.40
2022-10-17T08:05:48.893Z,2.53
2022-10-17T08:06:53.446Z,2.20
2022-10-17T08:07:58.631Z,2.53
2022-10-17T08:09:02.161Z,2.43
2022-10-17T08:10:04.555Z,2.30
2022-10-17T08:11:12.348Z,2.47
2022-10-17T08:12:15.291Z,2.07
2022-10-17T08:13:17.307Z,2.00
2022-10-17T08:14:19.125Z,2.10
2022-10-17T08:15:21.015Z,2.43
2022-10-17T08:16:22.923Z,2.03
2022-10-17T08:17:24.775Z,1.97
2022-10-17T08:18:26.470Z,1.90
2022-10-17T08:19:28.683Z,1.80
2022-10-17T08:20:30.871Z,1.90
2022-10-17T08:21:32.694Z,1.70
2022-10-17T08:22:35.599Z,1.73
2022-10-17T08:23:37.791Z,1.53
2022-10-17T08:24:39.679Z,2.40
2022-10-17T08:25:41.459Z,2.13
2022-10-17T08:26:46.130Z,1.20
2022-10-17T08:27:49.645Z,2.00
2022-10-17T08:28:51.471Z,1.70
2022-10-17T08:29:54.309Z,1.47
2022-10-17T08:31:04.519Z,1.70
2022-10-17T08:32:09.579Z,1.87
2022-10-17T08:33:11.736Z,1.97
2022-10-17T08:34:13.557Z,2.03
2022-10-17T08:35:15.267Z,2.60
2022-10-17T08:36:18.875Z,2.03
2022-10-17T08:37:20.543Z,3.00
2022-10-17T08:38:25.109Z,2.60
2022-10-17T08:39:28.218Z,3.30
2022-10-17T08:40:35.620Z,2.67
2022-10-17T08:41:48.719Z,2.47
2022-10-17T08:43:05.663Z,2.20
2022-10-17T08:44:31.297Z,2.50
2022-10-17T08:45:40.843Z,2.00
2022-10-17T08:46:45.403Z,2.00
2022-10-17T08:47:58.003Z,1.60
2022-10-17T08:49:02.900Z,1.93
2022-10-17T08:50:11.789Z,1.70
2022-10-17T08:51:22.883Z,2.20
2022-10-17T08:52:24.628Z,1.90
2022-10-17T08:54:05.362Z,1.70
2022-10-17T08:55:17.487Z,1.80
2022-10-17T08:56:48.595Z,2.30
2022-10-17T08:57:51.297Z,1.80
2022-10-17T08:58:53.161Z,1.67
2022-10-17T08:59:55.196Z,1.60
2022-10-17T09:01:39.692Z,1.70
2022-10-17T09:03:02.779Z,1.77
2022-10-17T09:04:16.301Z,1.90
2022-10-17T09:05:31.122Z,1.53
2022-10-17T09:06:36.955Z,1.97
2022-10-17T09:07:45.095Z,1.63
2022-10-17T09:08:58.568Z,1.90
2022-10-17T09:10:18.595Z,2.00
2022-10-17T09:11:23.335Z,1.77
2022-10-17T09:12:52.391Z,2.90
2022-10-17T09:14:14.823Z,1.60
2022-10-17T09:15:25.983Z,1.80
2022-10-17T09:16:49.563Z,2.60
2022-10-17T09:17:54.338Z,1.90
2022-10-17T09:19:02.099Z,2.13
2022-10-17T09:20:23.928Z,2.47
2022-10-17T09:21:41.118Z,2.23
2022-10-17T09:22:52.757Z,4.90
2022-10-17T09:24:09.327Z,9.40
2022-10-17T09:25:16.137Z,2.30
2022-10-17T09:26:18.029Z,2.70
2022-10-17T09:27:22.717Z,2.70
2022-10-17T09:28:33.948Z,2.37
2022-10-17T09:29:40.197Z,1.93
2022-10-17T09:30:47.554Z,2.17
2022-10-17T09:33:34.366Z,2.03
2022-10-17T09:34:40.139Z,2.50
2022-10-17T09:35:42.659Z,2.17
2022-10-17T09:36:44.570Z,2.00
2022-10-17T09:37:47.230Z,2.50
2022-10-17T09:38:53.752Z,2.50
2022-10-17T09:39:55.605Z,2.10
2022-10-17T09:41:00.681Z,1.80
2022-10-17T09:42:03.259Z,2.40
2022-10-17T09:43:07.937Z,2.77
2022-10-17T09:44:14.093Z,2.10
2022-10-17T09:45:27.066Z,2.33
2022-10-17T09:46:37.777Z,2.43
2022-10-17T09:47:52.222Z,2.70
2022-10-17T09:49:11.166Z,2.60
2022-10-17T09:50:23.144Z,2.50
2022-10-17T09:51:26.384Z,2.20
2022-10-17T09:52:39.781Z,2.30
2022-10-17T09:53:45.360Z,2.30
2022-10-17T09:54:58.184Z,2.10
2022-10-17T09:56:04.373Z,2.07
2022-10-17T09:57:08.926Z,1.90
2022-10-17T09:58:11.749Z,1.83
2022-10-17T09:59:13.977Z,2.30
2022-10-17T10:00:23.379Z,1.70
2022-10-17T10:01:31.360Z,1.60
2022-10-17T10:02:40.888Z,1.90
2022-10-17T10:03:44.308Z,1.80
2022-10-17T10:05:08.841Z,2.10
2022-10-17T10:06:19.487Z,2.23
2022-10-17T10:07:25.643Z,2.20
2022-10-17T10:08:37.303Z,2.37
2022-10-17T10:09:41.670Z,2.37
2022-10-17T10:10:44.788Z,1.77
2022-10-17T10:11:58.075Z,1.83
2022-10-17T10:13:17.387Z,2.10
2022-10-17T10:14:47.351Z,1.77
2022-10-17T10:15:50.991Z,1.90
2022-10-17T10:16:53.893Z,1.67
2022-10-17T10:17:55.607Z,2.20
2022-10-17T10:18:58.057Z,2.13
2022-10-17T10:20:00.183Z,2.20
2022-10-17T10:21:07.085Z,1.80
2022-10-17T10:22:16.271Z,3.07
2022-10-17T10:23:21.536Z,2.27
2022-10-17T10:24:26.969Z,2.00
2022-10-17T10:25:33.065Z,2.43
2022-10-17T10:26:46.035Z,2.23
2022-10-17T10:27:47.817Z,2.10
2022-10-17T10:28:56.907Z,2.37
2022-10-17T10:29:59.477Z,1.87
2022-10-17T10:31:06.120Z,2.50
2022-10-17T10:32:12.473Z,2.20
2022-10-17T10:33:14.183Z,2.80
2022-10-17T10:34:25.066Z,2.00
2022-10-17T10:35:40.633Z,2.13
2022-10-17T10:36:57.270Z,2.13
2022-10-17T10:38:01.991Z,2.10
2022-10-17T10:39:04.705Z,2.10
2022-10-17T10:40:18.630Z,1.95
2022-10-17T10:41:21.375Z,1.90
2022-10-17T10:42:37.994Z,2.33
2022-10-17T10:43:44.154Z,1.50
2022-10-17T10:44:46.621Z,2.22
2022-10-17T10:45:49.305Z,1.70
2022-10-17T10:47:15.580Z,1.80
2022-10-17T10:48:30.568Z,2.00
2022-10-17T10:49:33.267Z,1.50
2022-10-17T10:50:45.404Z,1.80
2022-10-17T10:51:49.442Z,2.42
2022-10-17T10:52:58.200Z,2.45
2022-10-17T10:54:13.762Z,2.10
2022-10-17T10:55:23.785Z,1.80
2022-10-17T10:56:43.754Z,2.00
2022-10-17T10:57:49.392Z,1.90
2022-10-17T10:59:09.668Z,1.77
2022-10-17T11:00:21.045Z,2.22
2022-10-17T11:02:08.242Z,2.67
2022-10-17T11:03:25.503Z,2.60
2022-10-17T11:04:52.758Z,2.28
2022-10-17T11:06:19.075Z,2.50
2022-10-17T11:07:28.980Z,2.35
2022-10-17T11:09:05.623Z,2.10
2022-10-17T11:10:23.198Z,2.58
2022-10-17T11:11:39.615Z,2.00
2022-10-17T11:13:54.353Z,2.00
2022-10-17T11:15:08.149Z,2.45
2022-10-17T11:16:26.258Z,2.13
2022-10-17T11:17:36.618Z,2.00
2022-10-17T11:18:55.212Z,1.65
2022-10-17T11:20:05.831Z,1.80
2022-10-17T11:21:16.513Z,1.70
2022-10-17T11:22:32.173Z,1.80
2022-10-17T11:23:43.283Z,1.80
2022-10-17T11:24:57.254Z,1.77
2022-10-17T11:26:04.482Z,1.83
2022-10-17T11:27:07.180Z,2.50
2022-10-17T11:28:19.667Z,1.92
2022-10-17T11:29:26.403Z,2.50
2022-10-17T11:30:35.090Z,2.40
2022-10-17T11:31:43.114Z,2.10
2022-10-17T11:32:59.665Z,2.75
2022-10-17T11:34:07.792Z,1.98
2022-10-17T11:35:22.551Z,2.10
2022-10-17T11:36:31.791Z,2.65
2022-10-17T11:37:40.229Z,2.22
2022-10-17T11:38:48.934Z,2.10
2022-10-17T11:39:56.556Z,2.15
2022-10-17T11:41:00.023Z,1.88
2022-10-17T11:42:12.180Z,1.83
2022-10-17T11:43:17.556Z,2.53
2022-10-17T11:44:24.833Z,2.05
2022-10-17T11:45:29.622Z,2.38
2022-10-17T11:46:36.117Z,2.85
2022-10-17T11:47:48.354Z,2.53
2022-10-17T11:49:19.185Z,2.53
2022-10-17T11:52:02.076Z,2.47
2022-10-17T11:53:20.813Z,2.40
2022-10-17T11:54:34.270Z,2.20
2022-10-17T11:55:38.414Z,2.50
2022-10-17T11:57:10.738Z,2.00
2022-10-17T11:58:15.646Z,2.10
2022-10-17T11:59:41.948Z,1.63
2022-10-17T12:00:49.873Z,1.92
2022-10-17T12:01:59.797Z,1.80
2022-10-17T12:03:35.592Z,1.70
2022-10-17T12:04:54.894Z,1.70
2022-10-17T12:06:08.490Z,2.30
2022-10-17T12:07:38.221Z,1.67
2022-10-17T12:09:20.013Z,2.10
2022-10-17T12:10:31.692Z,1.67
2022-10-17T12:11:54.278Z,1.90
2022-10-17T12:12:56.235Z,1.60
2022-10-17T12:13:57.984Z,1.73
2022-10-17T12:15:23.688Z,1.53
2022-10-17T12:16:25.337Z,1.93
2022-10-17T12:17:39.431Z,1.40
2022-10-17T12:18:41.850Z,1.77
2022-10-17T12:19:43.758Z,1.50
2022-10-17T12:20:59.785Z,1.23
2022-10-17T12:22:20.844Z,1.60
2022-10-17T12:23:30.669Z,2.03
2022-10-17T12:24:38.867Z,1.85
2022-10-17T12:25:57.087Z,1.90
2022-10-17T12:27:39.995Z,1.55
2022-10-17T12:28:44.559Z,1.47
2022-10-17T12:29:48.535Z,1.80
2022-10-17T12:30:52.430Z,1.80
2022-10-17T12:31:54.565Z,1.37
2022-10-17T12:33:14.457Z,1.63
2022-10-17T12:34:20.331Z,1.83
2022-10-17T12:35:24.086Z,2.23
2022-10-17T12:36:25.963Z,1.30
2022-10-17T12:37:58.556Z,1.67
2022-10-17T12:39:03.943Z,1.60
2022-10-17T12:40:34.665Z,2.33
2022-10-17T12:41:39.499Z,1.60
2022-10-17T12:42:49.880Z,1.90
2022-10-17T12:43:53.669Z,1.77
2022-10-17T12:44:55.313Z,1.53
2022-10-17T12:46:00.408Z,1.70
2022-10-17T12:47:29.771Z,1.80
2022-10-17T12:48:34.710Z,2.13
2022-10-17T12:49:41.689Z,1.83
2022-10-17T12:51:34.884Z,1.80
2022-10-17T12:52:34.998Z,1.60
2022-10-17T12:53:47.696Z,1.70
2022-10-17T12:55:12.095Z,1.93
2022-10-17T12:56:21.748Z,1.77
2022-10-17T12:57:31.480Z,1.50
2022-10-17T12:58:35.463Z,1.93
2022-10-17T12:59:37.618Z,1.30
2022-10-17T13:01:22.633Z,2.10
2022-10-17T13:02:24.376Z,1.87
2022-10-17T13:03:33.802Z,1.60
2022-10-17T13:04:36.869Z,1.60
2022-10-17T13:05:44.106Z,1.90
2022-10-17T13:06:48.778Z,1.70
2022-10-17T13:07:53.129Z,2.00
2022-10-17T13:09:03.524Z,1.70
2022-10-17T13:10:06.491Z,1.33
2022-10-17T13:11:09.206Z,2.17
2022-10-17T13:12:22.159Z,1.50
2022-10-17T13:13:38.434Z,2.03
2022-10-17T13:14:42.773Z,1.10
2022-10-17T13:15:49.843Z,1.40
2022-10-17T13:16:57.488Z,1.60
2022-10-17T13:18:01.173Z,1.50
2022-10-17T13:19:12.848Z,1.30
2022-10-17T13:20:28.920Z,1.70
2022-10-17T13:21:33.449Z,1.70
2022-10-17T13:22:35.419Z,1.70
2022-10-17T13:23:38.007Z,2.10
2022-10-17T13:24:40.999Z,1.70
2022-10-17T13:25:42.729Z,1.70
2022-10-17T13:26:46.515Z,1.37
2022-10-17T13:27:50.048Z,1.60
2022-10-17T13:29:15.524Z,2.20
2022-10-17T13:30:27.957Z,2.07
2022-10-17T13:31:36.435Z,1.60
2022-10-17T13:32:40.889Z,1.55
2022-10-17T13:33:42.867Z,1.77
2022-10-17T13:34:46.917Z,1.43
2022-10-17T13:36:05.397Z,1.77
2022-10-17T13:37:12.599Z,1.63
2022-10-17T13:38:14.885Z,2.37
2022-10-17T13:39:38.212Z,2.00
2022-10-17T13:40:50.265Z,1.70
2022-10-17T13:41:55.928Z,1.93
2022-10-17T13:43:02.099Z,2.00
2022-10-17T13:44:11.701Z,1.53
2022-10-17T13:45:29.958Z,2.20
2022-10-17T13:46:39.113Z,1.60
2022-10-17T13:47:41.737Z,1.70
2022-10-17T13:48:43.620Z,1.80
2022-10-17T13:49:45.441Z,2.13
2022-10-17T13:50:50.869Z,1.50
2022-10-17T13:51:54.791Z,2.03
2022-10-17T13:53:24.477Z,1.67
2022-10-17T13:54:42.609Z,2.10
2022-10-17T13:56:16.191Z,2.00
2022-10-17T13:57:25.192Z,1.60
2022-10-17T13:58:32.094Z,1.67
2022-10-17T13:59:42.163Z,1.67
2022-10-17T14:00:49.746Z,1.80
2022-10-17T14:01:52.465Z,1.40
2022-10-17T14:02:54.184Z,1.70
2022-10-17T14:04:07.875Z,2.00
2022-10-17T14:05:18.628Z,1.50
2022-10-17T14:06:23.660Z,1.60
2022-10-17T14:07:41.606Z,2.30
2022-10-17T14:08:55.497Z,1.67
2022-10-17T14:09:57.344Z,1.63
2022-10-17T14:11:00.993Z,1.60
2022-10-17T14:12:12.543Z,2.17
2022-10-17T14:13:35.647Z,2.47
2022-10-17T14:14:58.327Z,2.10
2022-10-17T14:16:03.359Z,1.70
2022-10-17T14:17:34.749Z,1.97
2022-10-17T14:18:37.467Z,1.77
2022-10-17T14:19:39.221Z,2.00
2022-10-17T14:21:29.141Z,2.10
2022-10-17T14:22:20.991Z,1.63
2022-10-17T14:23:37.037Z,1.83
2022-10-17T14:24:39.729Z,2.00
2022-10-17T14:25:44.150Z,1.70
2022-10-17T14:27:00.625Z,1.67
2022-10-17T14:28:11.925Z,1.80
2022-10-17T14:29:29.228Z,1.70
2022-10-17T14:32:10.819Z,2.30
2022-10-17T14:33:33.823Z,2.43
2022-10-17T14:34:40.612Z,1.87
2022-10-17T14:35:53.251Z,1.97
2022-10-17T14:36:57.914Z,1.60
2022-10-17T14:38:05.260Z,2.03
2022-10-17T14:39:17.095Z,1.97
2022-10-17T14:40:21.106Z,2.20
2022-10-17T14:41:42.331Z,1.50
2022-10-17T14:42:45.584Z,2.13
2022-10-17T14:43:56.424Z,1.70
2022-10-17T14:45:06.433Z,1.93
2022-10-17T14:46:15.894Z,1.97
2022-10-17T14:47:43.674Z,1.83
2022-10-17T14:48:47.693Z,2.53
2022-10-17T14:49:51.707Z,3.03
2022-10-17T14:51:11.916Z,2.07
2022-10-17T14:52:18.387Z,3.00
2022-10-17T14:53:22.661Z,2.80
2022-10-17T14:54:26.858Z,1.97
2022-10-17T14:55:30.982Z,2.27
2022-10-17T14:56:42.869Z,2.00
2022-10-17T14:57:46.283Z,3.23
2022-10-17T14:58:47.976Z,2.33
2022-10-17T14:59:54.337Z,2.00
2022-10-17T15:00:58.389Z,2.47